createdAt,value
2019-03-28T00:00:03.275Z,102187
2019-03-28T00:02:32.112Z,102191
2019-03-28T00:05:00.967Z,102191
2019-03-28T00:07:29.808Z,102187
2019-03-28T00:09:58.882Z,102187
2019-03-28T00:12:28.293Z,102186
2019-03-28T00:14:57.866Z,102181
2019-03-28T00:17:26.688Z,102189
2019-03-28T00:19:55.670Z,102183
2019-03-28T00:22:25.104Z,102182
2019-03-28T00:24:55.876Z,102181
2019-03-28T00:27:24.715Z,102177
2019-03-28T00:29:54.265Z,102170
2019-03-28T00:32:22.387Z,102169
2019-03-28T00:34:51.235Z,102177
2019-03-28T00:37:20.077Z,102174
2019-03-28T00:39:48.912Z,102168
2019-03-28T00:42:18.364Z,102169
2019-03-28T00:44:47.209Z,102170
2019-03-28T00:47:16.800Z,102165
2019-03-28T00:49:46.384Z,102174
2019-03-28T00:52:15.236Z,102170
2019-03-28T00:54:44.080Z,102163
2019-03-28T00:57:13.656Z,102166
2019-03-28T00:59:42.501Z,102167
2019-03-28T01:02:11.348Z,102169
2019-03-28T01:04:40.218Z,102168
2019-03-28T01:07:09.046Z,102169
2019-03-28T01:09:37.894Z,102163
2019-03-28T01:12:06.747Z,102166
2019-03-28T01:14:35.603Z,102163
2019-03-28T01:17:05.277Z,102162
2019-03-28T01:19:34.060Z,102167
2019-03-28T01:22:02.895Z,102159
2019-03-28T01:24:32.477Z,102172
2019-03-28T01:27:01.316Z,102161
2019-03-28T01:29:30.147Z,102161
2019-03-28T01:31:58.988Z,102169
2019-03-28T01:34:27.824Z,102158
2019-03-28T01:36:56.665Z,102156
2019-03-28T01:39:25.511Z,102160
2019-03-28T01:41:54.362Z,102160
2019-03-28T01:44:23.196Z,102160
2019-03-28T01:46:52.028Z,102158
2019-03-28T01:49:20.888Z,102158
2019-03-28T01:51:49.737Z,102154
2019-03-28T01:54:18.580Z,102157
2019-03-28T01:56:48.186Z,102152
2019-03-28T01:59:17.767Z,102165
2019-03-28T02:01:46.604Z,102156
2019-03-28T02:04:15.436Z,102142
2019-03-28T02:06:44.293Z,102154
2019-03-28T02:09:13.139Z,102156
2019-03-28T02:11:42.734Z,102150
2019-03-28T02:14:12.346Z,102149
2019-03-28T02:16:40.442Z,102145
2019-03-28T02:19:10.022Z,102146
2019-03-28T02:21:38.874Z,102154
2019-03-28T02:24:07.724Z,102144
2019-03-28T02:26:36.572Z,102147
2019-03-28T02:29:05.420Z,102152
2019-03-28T02:31:34.257Z,102156
2019-03-28T02:34:03.847Z,102152
2019-03-28T02:36:32.688Z,102144
2019-03-28T02:39:01.536Z,102150
2019-03-28T02:41:30.428Z,102146
2019-03-28T02:43:59.269Z,102139
2019-03-28T02:46:28.117Z,102140
2019-03-28T02:48:56.981Z,102143
2019-03-28T02:51:25.814Z,102146
2019-03-28T02:53:54.667Z,102143
2019-03-28T02:56:23.634Z,102138
2019-03-28T02:58:52.340Z,102143
2019-03-28T03:01:21.183Z,102136
2019-03-28T03:03:50.045Z,102142
2019-03-28T03:06:18.867Z,102133
2019-03-28T03:08:47.698Z,102143
2019-03-28T03:11:16.552Z,102141
2019-03-28T03:13:45.858Z,102137
2019-03-28T03:16:14.229Z,102140
2019-03-28T03:18:43.074Z,102154
2019-03-28T03:21:12.489Z,102151
2019-03-28T03:23:41.339Z,102152
2019-03-28T03:26:10.175Z,102149
2019-03-28T03:28:39.007Z,102153
2019-03-28T03:31:07.849Z,102155
2019-03-28T03:33:37.980Z,102161
2019-03-28T03:36:06.285Z,102168
2019-03-28T03:38:35.115Z,102164
2019-03-28T03:41:03.962Z,102163
2019-03-28T03:43:33.946Z,102160
2019-03-28T03:46:02.774Z,102160
2019-03-28T03:48:31.618Z,102164
2019-03-28T03:51:01.205Z,102166
2019-03-28T03:53:30.058Z,102171
2019-03-28T03:55:58.886Z,102176
2019-03-28T03:58:27.719Z,102173
2019-03-28T04:00:56.649Z,102173
2019-03-28T04:03:25.477Z,102175
2019-03-28T04:05:54.331Z,102180
2019-03-28T04:08:23.164Z,102180
2019-03-28T04:10:52.007Z,102180
2019-03-28T04:13:20.849Z,102180
2019-03-28T04:15:49.685Z,102184
2019-03-28T04:18:21.919Z,102184
2019-03-28T04:20:47.351Z,102190
2019-03-28T04:23:16.207Z,102192
2019-03-28T04:25:45.029Z,102192
2019-03-28T04:28:24.787Z,102183
2019-03-28T04:30:42.755Z,102186
2019-03-28T04:33:12.326Z,102189
2019-03-28T04:35:41.173Z,102194
2019-03-28T04:38:10.019Z,102199
2019-03-28T04:40:38.880Z,102201
2019-03-28T04:43:07.732Z,102208
2019-03-28T04:45:36.572Z,102215
2019-03-28T04:48:05.413Z,102219
2019-03-28T04:50:34.248Z,102217
2019-03-28T04:53:03.088Z,102207
2019-03-28T04:55:31.928Z,102205
2019-03-28T04:58:00.762Z,102204
2019-03-28T05:00:29.606Z,102207
2019-03-28T05:02:58.459Z,102221
2019-03-28T05:05:27.297Z,102206
2019-03-28T05:07:56.123Z,102207
2019-03-28T05:10:24.975Z,102204
2019-03-28T05:12:53.801Z,102211
2019-03-28T05:15:22.650Z,102207
2019-03-28T05:17:51.479Z,102206
2019-03-28T05:20:20.311Z,102208
2019-03-28T05:22:49.151Z,102217
2019-03-28T05:25:17.984Z,102215
2019-03-28T05:27:46.826Z,102213
2019-03-28T05:30:15.678Z,102219
2019-03-28T05:32:44.506Z,102226
2019-03-28T05:35:13.382Z,102222
2019-03-28T05:37:42.190Z,102224
2019-03-28T05:40:11.101Z,102221
2019-03-28T05:42:39.876Z,102212
2019-03-28T05:45:08.706Z,102217
2019-03-28T05:47:37.536Z,102234
2019-03-28T05:50:06.405Z,102226
2019-03-28T05:52:35.251Z,102225
2019-03-28T05:55:05.506Z,102232
2019-03-28T05:57:32.936Z,102230
2019-03-28T06:00:01.789Z,102234
2019-03-28T06:02:30.616Z,102243
2019-03-28T06:05:00.454Z,102243
2019-03-28T06:07:29.258Z,102239
2019-03-28T06:09:58.852Z,102238
2019-03-28T06:12:27.708Z,102240
2019-03-28T06:14:56.600Z,102242
2019-03-28T06:17:25.437Z,102238
2019-03-28T06:19:55.022Z,102238
2019-03-28T06:22:23.846Z,102242
2019-03-28T06:24:52.692Z,102252
2019-03-28T06:27:21.667Z,102247
2019-03-28T06:29:50.502Z,102252
2019-03-28T06:32:20.086Z,102253
2019-03-28T06:34:48.951Z,102251
2019-03-28T06:37:17.786Z,102261
2019-03-28T06:39:46.633Z,102264
2019-03-28T06:42:15.462Z,102266
2019-03-28T06:44:45.044Z,102264
2019-03-28T06:47:14.461Z,102264
2019-03-28T06:49:44.097Z,102255
2019-03-28T06:52:12.910Z,102248
2019-03-28T06:54:41.756Z,102255
2019-03-28T06:57:10.608Z,102254
2019-03-28T06:59:39.442Z,102241
2019-03-28T07:02:08.285Z,102261
2019-03-28T07:04:37.166Z,102253
2019-03-28T07:07:06.632Z,102255
2019-03-28T07:09:34.851Z,102245
2019-03-28T07:12:03.690Z,102258
2019-03-28T07:14:32.542Z,102255
2019-03-28T07:17:01.388Z,102255
2019-03-28T07:19:30.244Z,102242
2019-03-28T07:21:59.131Z,102252
2019-03-28T07:24:27.993Z,102252
2019-03-28T07:26:56.836Z,102239
2019-03-28T07:29:25.727Z,102245
2019-03-28T07:31:54.500Z,102255
2019-03-28T07:34:23.357Z,102247
2019-03-28T07:36:52.213Z,102247
2019-03-28T07:39:21.046Z,102248
2019-03-28T07:41:50.623Z,102247
2019-03-28T07:44:19.482Z,102244
2019-03-28T07:46:48.318Z,102239
2019-03-28T07:49:17.160Z,102235
2019-03-28T07:51:45.998Z,102246
2019-03-28T07:54:14.837Z,102247
2019-03-28T07:56:43.773Z,102250
2019-03-28T07:59:12.617Z,102247
2019-03-28T08:01:41.453Z,102241
2019-03-28T08:04:12.320Z,102246
2019-03-28T08:06:49.163Z,102234
2019-03-28T08:09:08.046Z,102238
2019-03-28T08:11:38.714Z,102246
2019-03-28T08:14:06.465Z,102238
2019-03-28T08:16:35.303Z,102236
2019-03-28T08:19:04.151Z,102244
2019-03-28T08:21:32.987Z,102234
2019-03-28T08:24:01.825Z,102228
2019-03-28T08:26:30.677Z,102239
2019-03-28T08:28:59.520Z,102241
2019-03-28T08:31:28.375Z,102238
2019-03-28T08:33:57.300Z,102234
2019-03-28T08:36:26.135Z,102232
2019-03-28T08:38:54.977Z,102237
2019-03-28T08:41:23.801Z,102236
2019-03-28T08:43:52.647Z,102245
2019-03-28T08:46:21.469Z,102236
2019-03-28T08:48:50.314Z,102234
2019-03-28T08:51:19.164Z,102228
2019-03-28T08:53:48.027Z,102230
2019-03-28T08:56:16.872Z,102236
2019-03-28T08:58:45.717Z,102234
2019-03-28T09:01:15.151Z,102235
2019-03-28T09:03:43.985Z,102226
2019-03-28T09:06:12.832Z,102223
2019-03-28T09:08:41.731Z,102228
2019-03-28T09:11:10.518Z,102220
2019-03-28T09:13:39.351Z,102221
2019-03-28T09:16:08.189Z,102217
2019-03-28T09:18:37.039Z,102216
2019-03-28T09:21:05.889Z,102218
2019-03-28T09:23:34.733Z,102213
2019-03-28T09:26:04.517Z,102219
2019-03-28T09:28:32.475Z,102218
2019-03-28T09:31:01.371Z,102222
2019-03-28T09:33:30.198Z,102219
2019-03-28T09:35:59.889Z,102223
2019-03-28T09:38:28.690Z,102224
2019-03-28T09:40:58.290Z,102224
2019-03-28T09:43:27.141Z,102211
2019-03-28T09:45:55.993Z,102220
2019-03-28T09:48:24.853Z,102227
2019-03-28T09:50:53.723Z,102226
2019-03-28T09:53:22.581Z,102230
2019-03-28T09:55:51.473Z,102222
2019-03-28T09:58:20.305Z,102210
2019-03-28T10:01:02.088Z,102214
2019-03-28T10:03:17.985Z,102210
2019-03-28T10:05:47.426Z,102209
2019-03-28T10:08:16.295Z,102203
2019-03-28T10:10:48.583Z,102208
2019-03-28T10:13:15.479Z,102200
2019-03-28T10:15:44.338Z,102200
2019-03-28T10:18:13.204Z,102202
2019-03-28T10:20:42.075Z,102201
2019-03-28T10:23:10.941Z,102202
2019-03-28T10:25:40.573Z,102192
2019-03-28T10:28:08.708Z,102198
2019-03-28T10:30:37.539Z,102192
2019-03-28T10:35:26.248Z,102197
2019-03-28T10:37:55.097Z,102197
2019-03-28T10:40:24.691Z,102193
2019-03-28T10:42:53.539Z,102190
2019-03-28T10:45:22.394Z,102209
2019-03-28T10:47:51.241Z,102199
2019-03-28T10:50:20.853Z,102195
2019-03-28T10:52:50.315Z,102199
2019-03-28T10:55:19.158Z,102195
2019-03-28T10:57:48.035Z,102204
2019-03-28T11:00:23.869Z,102204
2019-03-28T11:02:45.804Z,102202
2019-03-28T11:05:14.763Z,102196
2019-03-28T11:07:43.477Z,102196
2019-03-28T11:10:12.283Z,102195
2019-03-28T11:12:41.137Z,102192
2019-03-28T11:15:09.977Z,102191
2019-03-28T11:17:39.581Z,102192
2019-03-28T11:20:09.801Z,102187
2019-03-28T11:22:38.114Z,102182
2019-03-28T11:25:06.879Z,102187
2019-03-28T11:27:35.744Z,102178
2019-03-28T11:30:05.175Z,102174
2019-03-28T11:32:35.891Z,102168
2019-03-28T11:35:02.909Z,102168
2019-03-28T11:37:31.753Z,102167
2019-03-28T11:40:00.616Z,102166
2019-03-28T11:42:30.214Z,102166
2019-03-28T11:44:59.059Z,102165
2019-03-28T11:47:27.894Z,102156
2019-03-28T11:49:56.758Z,102155
2019-03-28T11:52:25.610Z,102148
2019-03-28T11:54:54.459Z,102157
2019-03-28T11:57:23.309Z,102149
2019-03-28T11:59:52.153Z,102146
2019-03-28T12:02:21.018Z,102146
2019-03-28T12:04:49.859Z,102145
2019-03-28T12:07:18.707Z,102132
2019-03-28T12:09:47.549Z,102128
2019-03-28T12:12:16.385Z,102132
2019-03-28T12:14:45.972Z,102129
2019-03-28T12:17:14.811Z,102125
2019-03-28T12:19:43.671Z,102122
2019-03-28T12:22:12.571Z,102115
2019-03-28T12:24:41.443Z,102122
2019-03-28T12:27:10.289Z,102115
2019-03-28T12:29:39.150Z,102117
2019-03-28T12:32:14.275Z,102114
2019-03-28T12:34:38.357Z,102115
2019-03-28T12:37:07.955Z,102113
2019-03-28T12:39:37.551Z,102108
2019-03-28T12:42:06.401Z,102104
2019-03-28T12:44:35.247Z,102105
2019-03-28T12:47:04.097Z,102101
2019-03-28T12:49:32.985Z,102097
2019-03-28T12:52:01.826Z,102100
2019-03-28T12:54:30.673Z,102099
2019-03-28T12:56:59.517Z,102095
2019-03-28T12:59:28.399Z,102092
2019-03-28T13:01:57.222Z,102100
2019-03-28T13:04:26.070Z,102091
2019-03-28T13:06:54.969Z,102087
2019-03-28T13:09:23.981Z,102092
2019-03-28T13:11:52.810Z,102083
2019-03-28T13:14:21.737Z,102081
2019-03-28T13:16:50.593Z,102084
2019-03-28T13:19:19.399Z,102090
2019-03-28T13:21:48.275Z,102091
2019-03-28T13:24:17.174Z,102082
2019-03-28T13:26:46.113Z,102084
2019-03-28T13:29:14.948Z,102080
2019-03-28T13:31:43.783Z,102075
2019-03-28T13:34:12.623Z,102084
2019-03-28T13:36:41.475Z,102087
2019-03-28T13:39:10.411Z,102087
2019-03-28T13:41:39.227Z,102085
2019-03-28T13:44:08.099Z,102074
2019-03-28T13:46:37.845Z,102067
2019-03-28T13:49:06.654Z,102064
2019-03-28T13:51:35.496Z,102075
2019-03-28T13:54:04.340Z,102068
2019-03-28T13:56:33.186Z,102075
2019-03-28T13:59:02.032Z,102072
2019-03-28T14:01:30.898Z,102072
2019-03-28T14:03:59.826Z,102069
2019-03-28T14:06:28.702Z,102061
2019-03-28T14:08:57.546Z,102060
2019-03-28T14:11:26.357Z,102058
2019-03-28T14:13:55.271Z,102050
2019-03-28T14:16:24.119Z,102057
2019-03-28T14:18:52.983Z,102045
2019-03-28T14:21:21.805Z,102045
2019-03-28T14:23:50.655Z,102045
2019-03-28T14:26:20.264Z,102048
2019-03-28T14:28:50.343Z,102044
2019-03-28T14:31:18.031Z,102044
2019-03-28T14:33:46.896Z,102036
2019-03-28T14:36:15.742Z,102039
2019-03-28T14:38:44.616Z,102046
2019-03-28T14:41:13.484Z,102040
2019-03-28T14:43:42.307Z,102046
2019-03-28T14:46:11.139Z,102038
2019-03-28T14:48:39.997Z,102052
2019-03-28T14:51:08.853Z,102041
2019-03-28T14:53:38.494Z,102038
2019-03-28T14:56:07.319Z,102040
2019-03-28T14:58:36.922Z,102039
2019-03-28T15:01:05.751Z,102031
2019-03-28T15:03:34.576Z,102031
2019-03-28T15:06:03.420Z,102034
2019-03-28T15:08:32.273Z,102027
2019-03-28T15:11:01.681Z,102028
2019-03-28T15:13:29.958Z,102043
2019-03-28T15:15:59.553Z,102037
2019-03-28T15:18:28.414Z,102032
2019-03-28T15:20:57.246Z,102036
2019-03-28T15:23:26.098Z,102033
2019-03-28T15:26:07.477Z,102027
2019-03-28T15:28:37.109Z,102021
2019-03-28T15:31:06.676Z,102023
2019-03-28T15:33:39.855Z,102018
2019-03-28T15:36:05.122Z,102023
2019-03-28T15:38:33.972Z,102017
2019-03-28T15:41:02.905Z,102016
2019-03-28T15:43:31.680Z,102014
2019-03-28T15:46:00.554Z,102014
2019-03-28T15:48:29.434Z,102019
2019-03-28T15:50:58.260Z,102020
2019-03-28T15:53:27.112Z,102017
2019-03-28T15:55:55.963Z,102015
2019-03-28T15:58:24.794Z,102017
2019-03-28T16:00:53.654Z,102018
2019-03-28T16:03:22.512Z,102024
2019-03-28T16:05:58.283Z,102015
2019-03-28T16:08:20.950Z,102021
2019-03-28T16:10:50.547Z,102030
2019-03-28T16:13:19.435Z,102015
2019-03-28T16:15:48.252Z,102018
2019-03-28T16:18:17.141Z,102025
2019-03-28T16:20:45.970Z,102020
2019-03-28T16:23:14.799Z,102019
2019-03-28T16:25:43.627Z,102025
2019-03-28T16:28:12.475Z,102023
2019-03-28T16:30:41.329Z,102016
2019-03-28T16:33:10.169Z,102025
2019-03-28T16:35:39.016Z,102024
2019-03-28T16:38:07.949Z,102030
2019-03-28T16:40:37.555Z,102024
2019-03-28T16:43:07.609Z,102033
2019-03-28T16:45:36.008Z,102036
2019-03-28T16:48:04.860Z,102029
2019-03-28T16:50:34.194Z,102034
2019-03-28T16:53:02.628Z,102034
2019-03-28T16:55:32.208Z,102030
2019-03-28T16:58:01.076Z,102022
2019-03-28T17:00:33.814Z,102025
2019-03-28T17:03:02.647Z,102024
2019-03-28T17:05:34.514Z,102033
2019-03-28T17:08:00.420Z,102023
2019-03-28T17:10:33.077Z,102023
2019-03-28T17:13:01.939Z,102024
2019-03-28T17:15:31.566Z,102031
2019-03-28T17:18:01.124Z,102028
2019-03-28T17:20:29.995Z,102031
2019-03-28T17:22:58.845Z,102031
2019-03-28T17:25:27.726Z,102038
2019-03-28T17:27:56.615Z,102031
2019-03-28T17:30:25.440Z,102036
2019-03-28T17:32:54.285Z,102022
2019-03-28T17:35:23.132Z,102028
2019-03-28T17:37:51.986Z,102033
2019-03-28T17:40:20.824Z,102043
2019-03-28T17:42:50.195Z,102047
2019-03-28T17:45:18.553Z,102040
2019-03-28T17:47:47.396Z,102040
2019-03-28T17:50:16.315Z,102045
2019-03-28T17:52:45.175Z,102048
2019-03-28T17:55:13.996Z,102047
2019-03-28T17:57:42.852Z,102057
2019-03-28T18:00:11.709Z,102059
2019-03-28T18:02:40.559Z,102062
2019-03-28T18:05:12.890Z,102060
2019-03-28T18:07:39.014Z,102061
2019-03-28T18:10:07.918Z,102058
2019-03-28T18:12:36.740Z,102062
2019-03-28T18:15:05.623Z,102060
2019-03-28T18:17:34.488Z,102071
2019-03-28T18:20:03.388Z,102068
2019-03-28T18:22:32.254Z,102065
2019-03-28T18:25:01.107Z,102062
2019-03-28T18:27:29.966Z,102075
2019-03-28T18:29:58.893Z,102075
2019-03-28T18:32:27.727Z,102077
2019-03-28T18:35:05.355Z,102081
2019-03-28T18:37:25.450Z,102079
2019-03-28T18:39:54.930Z,102082
2019-03-28T18:42:23.173Z,102073
2019-03-28T18:44:52.063Z,102078
2019-03-28T18:47:20.972Z,102078
2019-03-28T18:49:49.865Z,102085
2019-03-28T18:52:18.748Z,102087
2019-03-28T18:54:47.664Z,102088
2019-03-28T18:57:19.613Z,102089
2019-03-28T18:59:45.417Z,102094
2019-03-28T19:02:14.266Z,102088
2019-03-28T19:04:43.179Z,102098
2019-03-28T19:07:12.006Z,102086
2019-03-28T19:09:41.624Z,102092
2019-03-28T19:12:11.220Z,102102
2019-03-28T19:14:40.099Z,102103
2019-03-28T19:17:08.960Z,102106
2019-03-28T19:19:39.521Z,102108
2019-03-28T19:22:06.740Z,102107
2019-03-28T19:24:35.586Z,102112
2019-03-28T19:27:04.452Z,102105
2019-03-28T19:29:33.303Z,102102
2019-03-28T19:32:02.164Z,102106
2019-03-28T19:34:31.227Z,102104
2019-03-28T19:37:00.077Z,102100
2019-03-28T19:39:30.741Z,102100
2019-03-28T19:41:59.672Z,102096
2019-03-28T19:44:28.487Z,102095
2019-03-28T19:46:57.378Z,102098
2019-03-28T19:49:26.281Z,102101
2019-03-28T19:51:55.165Z,102102
2019-03-28T19:54:24.012Z,102097
2019-03-28T19:56:52.978Z,102095
2019-03-28T19:59:21.802Z,102095
2019-03-28T20:01:50.724Z,102103
2019-03-28T20:04:20.156Z,102098
2019-03-28T20:06:49.385Z,102096
2019-03-28T20:09:18.383Z,102094
2019-03-28T20:11:47.038Z,102095
2019-03-28T20:14:16.646Z,102100
2019-03-28T20:16:46.274Z,102098
2019-03-28T20:19:17.716Z,102102
2019-03-28T20:21:44.003Z,102090
2019-03-28T20:24:12.840Z,102098
2019-03-28T20:26:41.702Z,102097
2019-03-28T20:29:10.565Z,102093
2019-03-28T20:31:39.445Z,102101
2019-03-28T20:34:08.260Z,102094
2019-03-28T20:36:40.760Z,102096
2019-03-28T20:39:06.297Z,102095
2019-03-28T20:41:35.681Z,102090
2019-03-28T20:44:05.298Z,102099
2019-03-28T20:46:34.132Z,102100
2019-03-28T20:49:02.974Z,102095
2019-03-28T20:51:31.827Z,102106
2019-03-28T20:54:00.674Z,102104
2019-03-28T20:56:29.528Z,102105
2019-03-28T20:58:59.130Z,102101
2019-03-28T21:01:28.728Z,102100
2019-03-28T21:03:57.569Z,102098
2019-03-28T21:06:26.414Z,102099
2019-03-28T21:08:55.282Z,102097
2019-03-28T21:11:24.124Z,102100
2019-03-28T21:13:52.978Z,102097
2019-03-28T21:16:21.830Z,102102
2019-03-28T21:18:50.663Z,102104
2019-03-28T21:21:20.271Z,102098
2019-03-28T21:23:49.121Z,102096
2019-03-28T21:26:17.995Z,102090
2019-03-28T21:28:47.835Z,102093
2019-03-28T21:31:16.388Z,102089
2019-03-28T21:33:45.247Z,102093
2019-03-28T21:36:28.583Z,102089
2019-03-28T21:38:44.471Z,102087
2019-03-28T21:41:14.052Z,102088
2019-03-28T21:43:42.906Z,102086
2019-03-28T21:46:11.747Z,102086
2019-03-28T21:48:41.334Z,102088
2019-03-28T21:51:11.651Z,102077
2019-03-28T21:53:39.058Z,102083
2019-03-28T21:56:07.917Z,102073
2019-03-28T21:58:37.533Z,102074
2019-03-28T22:01:07.008Z,102080
2019-03-28T22:03:35.259Z,102078
2019-03-28T22:06:04.086Z,102076
2019-03-28T22:08:33.035Z,102074
2019-03-28T22:11:02.577Z,102074
2019-03-28T22:13:31.509Z,102071
2019-03-28T22:16:01.124Z,102076
2019-03-28T22:18:29.973Z,102067
2019-03-28T22:20:58.792Z,102075
2019-03-28T22:23:27.622Z,102062
2019-03-28T22:25:56.516Z,102068
2019-03-28T22:28:25.343Z,102070
2019-03-28T22:30:54.233Z,102069
2019-03-28T22:33:23.810Z,102069
2019-03-28T22:35:52.664Z,102071
2019-03-28T22:38:21.520Z,102068
2019-03-28T22:40:50.577Z,102066
2019-03-28T22:43:19.393Z,102065
2019-03-28T22:45:48.989Z,102057
2019-03-28T22:48:17.867Z,102064
2019-03-28T22:50:46.703Z,102066
2019-03-28T22:53:15.560Z,102067
2019-03-28T22:55:45.163Z,102063
2019-03-28T22:58:14.188Z,102069
2019-03-28T23:00:45.879Z,102059
2019-03-28T23:03:14.732Z,102065
2019-03-28T23:05:43.593Z,102069
2019-03-28T23:08:12.419Z,102071
2019-03-28T23:10:41.266Z,102061
2019-03-28T23:13:10.486Z,102063
2019-03-28T23:15:39.311Z,102058
2019-03-28T23:18:08.161Z,102063
2019-03-28T23:20:37.744Z,102055
2019-03-28T23:23:06.588Z,102061
2019-03-28T23:25:36.292Z,102058
2019-03-28T23:28:04.275Z,102057
2019-03-28T23:30:33.102Z,102058
2019-03-28T23:33:01.964Z,102059
2019-03-28T23:35:30.813Z,102054
2019-03-28T23:37:59.654Z,102061
2019-03-28T23:40:29.907Z,102059
2019-03-28T23:42:57.332Z,102059
2019-03-28T23:45:26.164Z,102064
2019-03-28T23:47:55.810Z,102063
2019-03-28T23:50:23.860Z,102069
2019-03-28T23:52:52.731Z,102060
2019-03-28T23:55:21.600Z,102064
2019-03-28T23:57:50.455Z,102069
